Time,TemperatureF,DewpointF,PressureIn,WindDirection,WindDirectionDegrees,WindSpeedMPH,WindSpeedGustMPH,Humidity,HourlyPrecipIn,Conditions,Clouds,dailyrainin,SoftwareType,DateUTC
2013-02-12 00:01:00,30.0,22.0,-100.00,WNW,290,10.0,13.0,69,0.00,,,-99.99,,2013-02-12 06:01:00,
2013-02-12 00:12:00,30.0,22.0,-100.00,WNW,285,7.0,11.0,70,0.00,,,-99.99,,2013-02-12 06:12:00,
2013-02-12 00:21:00,30.0,22.0,-100.00,WNW,285,6.0,10.0,71,0.00,,,-99.99,,2013-02-12 06:21:00,
2013-02-12 00:32:00,30.0,22.0,-100.00,West,280,6.0,9.0,71,0.00,,,-99.99,,2013-02-12 06:32:00,
2013-02-12 00:42:00,30.0,22.0,-100.00,West,275,6.0,9.0,71,0.00,,,-99.99,,2013-02-12 06:42:00,
2013-02-12 00:51:00,30.0,22.0,-100.00,West,270,7.0,12.0,71,0.00,,,-99.99,,2013-02-12 06:51:00,
2013-02-12 01:01:00,30.0,22.0,-100.00,West,270,7.0,12.0,71,0.00,,,-99.99,,2013-02-12 07:01:00,
2013-02-12 01:11:00,30.0,22.0,-100.00,WNW,290,11.0,14.0,71,0.00,,,-99.99,,2013-02-12 07:11:00,
2013-02-12 01:21:00,30.0,22.0,-100.00,West,280,10.0,15.0,71,0.00,,,-99.99,,2013-02-12 07:21:00,
2013-02-12 01:31:00,30.0,22.0,-100.00,WNW,290,10.0,12.0,72,0.00,,,-99.99,,2013-02-12 07:31:00,
2013-02-12 01:41:00,30.0,23.0,-100.00,West,275,6.0,11.0,72,0.00,,,-99.99,,2013-02-12 07:41:00,
2013-02-12 01:51:00,30.0,23.0,-100.00,West,280,7.0,12.0,72,0.00,,,-99.99,,2013-02-12 07:51:00,
2013-02-12 02:01:00,30.0,23.0,-100.00,West,280,7.0,12.0,72,0.00,,,-99.99,,2013-02-12 08:01:00,
2013-02-12 02:11:00,30.0,22.0,-100.00,West,265,7.0,11.0,73,0.00,,,-99.99,,2013-02-12 08:11:00,
2013-02-12 02:21:00,30.0,22.0,-100.00,West,275,7.0,11.0,73,0.00,,,-99.99,,2013-02-12 08:21:00,
2013-02-12 02:31:00,30.0,22.0,-100.00,WNW,285,6.0,10.0,73,0.00,,,-99.99,,2013-02-12 08:31:00,
2013-02-12 02:41:00,30.0,22.0,-100.00,WNW,285,7.0,11.0,73,0.00,,,-99.99,,2013-02-12 08:41:00,
2013-02-12 02:52:00,30.0,22.0,-100.00,West,270,9.0,11.0,73,0.00,,,-99.99,,2013-02-12 08:52:00,
2013-02-12 03:01:00,30.0,22.0,-100.00,West,270,9.0,11.0,73,0.00,,,-99.99,,2013-02-12 09:01:00,
2013-02-12 03:11:00,30.0,22.0,-100.00,West,280,7.0,11.0,74,0.00,,,-99.99,,2013-02-12 09:11:00,
2013-02-12 03:21:00,29.0,22.0,-100.00,WNW,295,11.0,16.0,74,0.00,,,-99.99,,2013-02-12 09:21:00,
2013-02-12 03:32:00,29.0,22.0,-100.00,West,280,6.0,15.0,73,0.00,,,-99.99,,2013-02-12 09:32:00,
2013-02-12 03:41:00,29.0,22.0,-100.00,NW,305,12.0,16.0,73,0.00,,,-99.99,,2013-02-12 09:41:00,
2013-02-12 03:51:00,29.0,21.0,-100.00,WNW,295,10.0,16.0,73,0.00,,,-99.99,,2013-02-12 09:51:00,
2013-02-12 04:01:00,29.0,21.0,-100.00,WNW,295,10.0,16.0,73,0.00,,,-99.99,,2013-02-12 10:01:00,
2013-02-12 04:11:00,29.0,21.0,-100.00,WNW,290,7.0,14.0,73,0.00,,,-99.99,,2013-02-12 10:11:00,
2013-02-12 04:21:00,29.0,22.0,-100.00,NW,315,8.0,12.0,73,0.00,,,-99.99,,2013-02-12 10:21:00,
2013-02-12 04:31:00,29.0,22.0,-100.00,NW,310,7.0,12.0,73,0.00,,,-99.99,,2013-02-12 10:31:00,
2013-02-12 04:43:00,29.0,22.0,-100.00,NW,310,7.0,13.0,73,0.00,,,-99.99,,2013-02-12 10:43:00,
2013-02-12 04:51:00,29.0,22.0,-100.00,WNW,300,6.0,10.0,74,0.00,,,-99.99,,2013-02-12 10:51:00,
2013-02-12 05:01:00,29.0,21.0,-100.00,NW,305,7.0,9.0,73,0.00,,,-99.99,,2013-02-12 11:01:00,
2013-02-12 05:11:00,29.0,21.0,-100.00,WNW,290,6.0,7.0,73,0.00,,,-99.99,,2013-02-12 11:11:00,
2013-02-12 05:21:00,29.0,21.0,-100.00,WNW,300,6.0,6.0,74,0.00,,,-99.99,,2013-02-12 11:21:00,
2013-02-12 05:32:00,29.0,22.0,-100.00,WNW,285,4.0,7.0,74,0.00,,,-99.99,,2013-02-12 11:32:00,
2013-02-12 05:41:00,29.0,22.0,-100.00,WNW,285,4.0,7.0,74,0.00,,,-99.99,,2013-02-12 11:41:00,
2013-02-12 05:52:00,29.0,22.0,-100.00,WNW,295,4.0,7.0,74,0.00,,,-99.99,,2013-02-12 11:52:00,
2013-02-12 06:01:00,29.0,22.0,-100.00,WNW,295,4.0,7.0,74,0.00,,,-99.99,,2013-02-12 12:01:00,
2013-02-12 06:11:00,28.0,21.0,-100.00,NW,305,5.0,9.0,74,0.00,,,-99.99,,2013-02-12 12:11:00,
2013-02-12 06:21:00,28.0,21.0,-100.00,WNW,290,4.0,8.0,74,0.00,,,-99.99,,2013-02-12 12:21:00,
2013-02-12 06:32:00,28.0,21.0,-100.00,West,275,4.0,6.0,74,0.00,,,-99.99,,2013-02-12 12:32:00,
2013-02-12 06:42:00,28.0,21.0,-100.00,West,260,4.0,6.0,74,0.00,,,-99.99,,2013-02-12 12:42:00,
2013-02-12 06:52:00,28.0,21.0,-100.00,SW,225,2.0,6.0,74,0.00,,,-99.99,,2013-02-12 12:52:00,
2013-02-12 07:01:00,28.0,21.0,-100.00,West,270,4.0,4.0,74,0.00,,,-99.99,,2013-02-12 13:01:00,
2013-02-12 07:11:00,28.0,21.0,-100.00,WSW,245,2.0,4.0,75,0.00,,,-99.99,,2013-02-12 13:11:00,
2013-02-12 07:22:00,28.0,21.0,-100.00,West,260,2.0,4.0,75,0.00,,,-99.99,,2013-02-12 13:22:00,
2013-02-12 07:32:00,27.0,21.0,-100.00,WNW,290,2.0,3.0,75,0.00,,,-99.99,,2013-02-12 13:32:00,
2013-02-12 07:42:00,27.0,21.0,-100.00,WNW,285,1.0,2.0,77,0.00,,,-99.99,,2013-02-12 13:42:00,
2013-02-12 07:51:00,27.0,21.0,-100.00,WSW,245,0.0,1.0,77,0.00,,,-99.99,,2013-02-12 13:51:00,
2013-02-12 08:01:00,27.0,22.0,-100.00,SSW,195,1.0,2.0,78,0.00,,,-99.99,,2013-02-12 14:01:00,
2013-02-12 08:12:00,28.0,22.0,-100.00,SSW,200,0.0,2.0,78,0.00,,,-99.99,,2013-02-12 14:12:00,
2013-02-12 08:21:00,28.0,22.0,-100.00,SSW,210,2.0,4.0,78,0.00,,,-99.99,,2013-02-12 14:21:00,
2013-02-12 08:32:00,28.0,22.0,-100.00,SW,215,3.0,4.0,78,0.00,,,-99.99,,2013-02-12 14:32:00,
2013-02-12 08:42:00,29.0,23.0,-100.00,SSW,210,3.0,6.0,78,0.00,,,-99.99,,2013-02-12 14:42:00,
2013-02-12 08:52:00,29.0,23.0,-100.00,SSW,210,4.0,6.0,77,0.00,,,-99.99,,2013-02-12 14:52:00,
2013-02-12 09:02:00,29.0,23.0,-100.00,SSW,195,3.0,6.0,77,0.00,,,-99.99,,2013-02-12 15:02:00,
2013-02-12 09:11:00,29.0,23.0,-100.00,South,180,6.0,8.0,77,0.00,,,-99.99,,2013-02-12 15:11:00,
2013-02-12 09:21:00,30.0,24.0,-100.00,South,190,4.0,8.0,76,0.00,,,-99.99,,2013-02-12 15:21:00,
2013-02-12 09:32:00,31.0,24.0,-100.00,South,170,4.0,7.0,75,0.00,,,-99.99,,2013-02-12 15:32:00,
2013-02-12 09:42:00,31.0,23.0,-100.00,SW,215,3.0,7.0,72,0.00,,,-99.99,,2013-02-12 15:42:00,
2013-02-12 09:52:00,31.0,23.0,-100.00,SSW,200,4.0,7.0,71,0.00,,,-99.99,,2013-02-12 15:52:00,
2013-02-12 10:01:00,32.0,23.0,-100.00,SSW,195,5.0,9.0,70,0.00,,,-99.99,,2013-02-12 16:01:00,
2013-02-12 10:11:00,33.0,24.0,-100.00,SSE,165,6.0,9.0,69,0.00,,,-99.99,,2013-02-12 16:11:00,
2013-02-12 10:22:00,33.0,24.0,-100.00,South,180,4.0,11.0,68,0.00,,,-99.99,,2013-02-12 16:22:00,
2013-02-12 10:31:00,33.0,24.0,-100.00,South,185,2.0,7.0,68,0.00,,,-99.99,,2013-02-12 16:31:00,
2013-02-12 10:41:00,34.0,24.0,-100.00,South,180,5.0,7.0,66,0.00,,,-99.99,,2013-02-12 16:41:00,
2013-02-12 10:51:00,35.0,24.0,-100.00,South,175,2.0,6.0,64,0.00,,,-99.99,,2013-02-12 16:51:00,
2013-02-12 11:01:00,34.0,24.0,-100.00,WSW,240,2.0,7.0,64,0.00,,,-99.99,,2013-02-12 17:01:00,
2013-02-12 11:12:00,35.0,24.0,-100.00,SW,215,4.0,6.0,62,0.00,,,-99.99,,2013-02-12 17:12:00,
2013-02-12 11:21:00,35.0,24.0,-100.00,SW,215,4.0,6.0,62,0.00,,,-99.99,,2013-02-12 17:21:00,
2013-02-12 11:32:00,35.0,24.0,-100.00,SSW,210,4.0,7.0,61,0.00,,,-99.99,,2013-02-12 17:32:00,
2013-02-12 11:42:00,37.0,24.0,-100.00,WNW,290,4.0,7.0,58,0.00,,,-99.99,,2013-02-12 17:42:00,
2013-02-12 11:52:00,38.0,24.0,-100.00,WSW,245,4.0,7.0,56,0.00,,,-99.99,,2013-02-12 17:52:00,
2013-02-12 12:01:00,38.0,24.0,-100.00,WNW,285,8.0,12.0,56,0.00,,,-99.99,,2013-02-12 18:01:00,
2013-02-12 12:11:00,38.0,24.0,-100.00,WNW,285,8.0,12.0,56,0.00,,,-99.99,,2013-02-12 18:11:00,
2013-02-12 12:22:00,39.0,23.0,-100.00,WNW,290,6.0,9.0,52,0.00,,,-99.99,,2013-02-12 18:22:00,
2013-02-12 12:31:00,40.0,23.0,-100.00,SW,225,6.0,9.0,50,0.00,,,-99.99,,2013-02-12 18:31:00,
2013-02-12 12:41:00,42.0,24.0,-100.00,WSW,245,4.0,6.0,49,0.00,,,-99.99,,2013-02-12 18:41:00,
2013-02-12 12:52:00,42.0,24.0,-100.00,West,265,2.0,7.0,47,0.00,,,-99.99,,2013-02-12 18:52:00,
2013-02-12 13:02:00,43.0,24.0,-100.00,WNW,285,4.0,6.0,46,0.00,,,-99.99,,2013-02-12 19:02:00,
2013-02-12 13:11:00,43.0,22.0,-100.00,WNW,285,7.0,11.0,43,0.00,,,-99.99,,2013-02-12 19:11:00,
2013-02-12 13:21:00,43.0,22.0,-100.00,WNW,285,7.0,11.0,43,0.00,,,-99.99,,2013-02-12 19:21:00,
2013-02-12 13:31:00,44.0,22.0,-100.00,SW,235,2.0,6.0,42,0.00,,,-99.99,,2013-02-12 19:31:00,
2013-02-12 13:41:00,45.0,22.0,-100.00,SW,215,2.0,8.0,40,0.00,,,-99.99,,2013-02-12 19:41:00,
2013-02-12 13:51:00,44.0,22.0,-100.00,SW,225,8.0,11.0,41,0.00,,,-99.99,,2013-02-12 19:51:00,
2013-02-12 14:01:00,44.0,21.0,-100.00,SSW,195,5.0,11.0,40,0.00,,,-99.99,,2013-02-12 20:01:00,
2013-02-12 14:11:00,44.0,21.0,-100.00,SSW,195,5.0,11.0,40,0.00,,,-99.99,,2013-02-12 20:11:00,
2013-02-12 14:21:00,44.0,21.0,-100.00,South,190,6.0,9.0,39,0.00,,,-99.99,,2013-02-12 20:21:00,
2013-02-12 14:31:00,45.0,22.0,-100.00,South,185,7.0,12.0,39,0.00,,,-99.99,,2013-02-12 20:31:00,
2013-02-12 14:41:00,45.0,22.0,-100.00,SW,215,7.0,11.0,39,0.00,,,-99.99,,2013-02-12 20:41:00,
2013-02-12 14:52:00,45.0,21.0,-100.00,SSW,210,7.0,11.0,38,0.00,,,-99.99,,2013-02-12 20:52:00,
2013-02-12 15:01:00,44.0,21.0,-100.00,SW,215,6.0,12.0,38,0.00,,,-99.99,,2013-02-12 21:01:00,
2013-02-12 15:11:00,45.0,22.0,-100.00,SSW,210,6.0,10.0,38,0.00,,,-99.99,,2013-02-12 21:11:00,
2013-02-12 15:21:00,46.0,22.0,-100.00,SW,225,6.0,10.0,38,0.00,,,-99.99,,2013-02-12 21:21:00,
2013-02-12 15:31:00,45.0,21.0,-100.00,SSW,205,8.0,12.0,37,0.00,,,-99.99,,2013-02-12 21:31:00,
2013-02-12 15:42:00,45.0,21.0,-100.00,SSW,205,8.0,12.0,37,0.00,,,-99.99,,2013-02-12 21:42:00,
2013-02-12 15:51:00,45.0,22.0,-100.00,SSW,210,7.0,12.0,38,0.00,,,-99.99,,2013-02-12 21:51:00,
2013-02-12 16:01:00,45.0,22.0,-100.00,SSW,210,7.0,12.0,38,0.00,,,-99.99,,2013-02-12 22:01:00,
2013-02-12 16:12:00,45.0,22.0,-100.00,South,170,5.0,12.0,40,0.00,,,-99.99,,2013-02-12 22:12:00,
2013-02-12 16:21:00,45.0,23.0,-100.00,SSW,195,7.0,12.0,40,0.00,,,-99.99,,2013-02-12 22:21:00,
2013-02-12 16:32:00,44.0,22.0,-100.00,SSW,200,6.0,12.0,41,0.00,,,-99.99,,2013-02-12 22:32:00,
2013-02-12 16:41:00,44.0,22.0,-100.00,SSW,200,6.0,12.0,41,0.00,,,-99.99,,2013-02-12 22:41:00,
2013-02-12 16:51:00,44.0,22.0,-100.00,SSW,210,5.0,12.0,41,0.00,,,-99.99,,2013-02-12 22:51:00,
2013-02-12 17:01:00,44.0,22.0,-100.00,SSW,210,5.0,12.0,41,0.00,,,-99.99,,2013-02-12 23:01:00,
2013-02-12 17:11:00,44.0,22.0,-100.00,SSW,195,5.0,9.0,41,0.00,,,-99.99,,2013-02-12 23:11:00,
2013-02-12 17:21:00,44.0,22.0,-100.00,SSW,200,3.0,7.0,41,0.00,,,-99.99,,2013-02-12 23:21:00,
2013-02-12 17:32:00,44.0,22.0,-100.00,SSW,205,4.0,6.0,42,0.00,,,-99.99,,2013-02-12 23:32:00,
2013-02-12 17:41:00,43.0,22.0,-100.00,SSW,210,2.0,6.0,42,0.00,,,-99.99,,2013-02-12 23:41:00,
2013-02-12 17:52:00,42.0,22.0,-100.00,SSW,205,1.0,3.0,43,0.00,,,-99.99,,2013-02-12 23:52:00,
2013-02-12 18:02:00,42.0,22.0,-100.00,SSW,205,1.0,3.0,43,0.00,,,-99.99,,2013-02-13 00:02:00,
2013-02-12 18:11:00,41.0,21.0,-100.00,SSW,200,0.0,1.0,44,0.00,,,-99.99,,2013-02-13 00:11:00,
2013-02-12 18:21:00,41.0,21.0,-100.00,SSW,200,0.0,1.0,45,0.00,,,-99.99,,2013-02-13 00:21:00,
2013-02-12 18:32:00,40.0,21.0,-100.00,South,175,0.0,0.0,47,0.00,,,-99.99,,2013-02-13 00:32:00,
2013-02-12 18:42:00,39.0,21.0,-100.00,South,175,0.0,0.0,48,0.00,,,-99.99,,2013-02-13 00:42:00,
2013-02-12 18:51:00,39.0,22.0,-100.00,SSE,155,0.0,0.0,51,0.00,,,-99.99,,2013-02-13 00:51:00,
2013-02-12 19:01:00,39.0,22.0,-100.00,SSE,155,0.0,0.0,51,0.00,,,-99.99,,2013-02-13 01:01:00,
2013-02-12 19:11:00,38.0,23.0,-100.00,ESE,115,0.0,0.0,53,0.00,,,-99.99,,2013-02-13 01:11:00,
2013-02-12 19:21:00,37.0,23.0,-100.00,SE,125,0.0,0.0,55,0.00,,,-99.99,,2013-02-13 01:21:00,
2013-02-12 19:31:00,36.0,22.0,-100.00,SE,135,1.0,2.0,57,0.00,,,-99.99,,2013-02-13 01:31:00,
2013-02-12 19:42:00,35.0,23.0,-100.00,SE,140,1.0,2.0,59,0.00,,,-99.99,,2013-02-13 01:42:00,
2013-02-12 19:51:00,34.0,23.0,-100.00,ESE,105,1.0,3.0,63,0.00,,,-99.99,,2013-02-13 01:51:00,
2013-02-12 20:01:00,34.0,23.0,-100.00,ESE,105,1.0,3.0,63,0.00,,,-99.99,,2013-02-13 02:01:00,
2013-02-12 20:11:00,34.0,24.0,-100.00,ESE,120,2.0,2.0,66,0.00,,,-99.99,,2013-02-13 02:11:00,
2013-02-12 20:21:00,33.0,24.0,-100.00,ESE,120,3.0,3.0,67,0.00,,,-99.99,,2013-02-13 02:21:00,
2013-02-12 20:31:00,33.0,24.0,-100.00,ESE,115,2.0,3.0,68,0.00,,,-99.99,,2013-02-13 02:31:00,
2013-02-12 20:41:00,34.0,25.0,-100.00,SSE,150,0.0,2.0,71,0.00,,,-99.99,,2013-02-13 02:41:00,
2013-02-12 20:52:00,34.0,25.0,-100.00,SSW,200,1.0,5.0,70,0.00,,,-99.99,,2013-02-13 02:52:00,
2013-02-12 21:01:00,34.0,25.0,-100.00,SSW,200,1.0,5.0,70,0.00,,,-99.99,,2013-02-13 03:01:00,
2013-02-12 21:11:00,34.0,25.0,-100.00,SW,220,1.0,4.0,68,0.00,,,-99.99,,2013-02-13 03:11:00,
2013-02-12 21:21:00,34.0,25.0,-100.00,WSW,250,1.0,3.0,68,0.00,,,-99.99,,2013-02-13 03:21:00,
2013-02-12 21:32:00,35.0,25.0,-100.00,SSW,200,2.0,4.0,67,0.00,,,-99.99,,2013-02-13 03:32:00,
2013-02-12 21:41:00,34.0,24.0,-100.00,South,175,2.0,4.0,66,0.00,,,-99.99,,2013-02-13 03:41:00,
2013-02-12 21:51:00,34.0,25.0,-100.00,SSE,155,1.0,4.0,67,0.00,,,-99.99,,2013-02-13 03:51:00,
2013-02-12 22:01:00,34.0,25.0,-100.00,SSE,155,1.0,4.0,67,0.00,,,-99.99,,2013-02-13 04:01:00,
2013-02-12 22:11:00,34.0,25.0,-100.00,SSW,200,2.0,6.0,68,0.00,,,-99.99,,2013-02-13 04:11:00,
2013-02-12 22:21:00,34.0,24.0,-100.00,SSW,200,4.0,6.0,68,0.00,,,-99.99,,2013-02-13 04:21:00,
2013-02-12 22:31:00,34.0,25.0,-100.00,South,175,1.0,6.0,68,0.00,,,-99.99,,2013-02-13 04:31:00,
2013-02-12 22:41:00,33.0,24.0,-100.00,South,170,1.0,4.0,69,0.00,,,-99.99,,2013-02-13 04:41:00,
2013-02-12 22:51:00,33.0,24.0,-100.00,SE,130,1.0,3.0,70,0.00,,,-99.99,,2013-02-13 04:51:00,
2013-02-12 23:01:00,33.0,24.0,-100.00,SE,130,1.0,3.0,70,0.00,,,-99.99,,2013-02-13 05:01:00,
2013-02-12 23:11:00,33.0,24.0,-100.00,SSE,150,1.0,4.0,71,0.00,,,-99.99,,2013-02-13 05:11:00,
2013-02-12 23:22:00,33.0,24.0,-100.00,SE,140,3.0,4.0,72,0.00,,,-99.99,,2013-02-13 05:22:00,
2013-02-12 23:31:00,33.0,25.0,-100.00,ESE,120,1.0,4.0,72,0.00,,,-99.99,,2013-02-13 05:31:00,
2013-02-12 23:41:00,33.0,25.0,-100.00,SE,130,3.0,4.0,73,0.00,,,-99.99,,2013-02-13 05:41:00,
2013-02-12 23:52:00,32.0,25.0,-100.00,ESE,120,2.0,4.0,74,0.00,,,-99.99,,2013-02-13 05:52:00,